Lagos Airfield ULM

PT-0025 · Faro, Portugal

METAR history PT-0025 · Lagos Airfield ULM

Below you see METARs of the last few days. Select a year to browse through older METARs, from the year 2007 onwards.

March 2, 2024

Time Code Weather Temp. Visibility Ceiling Wind METAR/SPECI
21:00
V
14 °C 10 km+ - 280° 280° 15 kt METAR LPFR 022100Z 28015KT 9999 FEW015 14/12 Q1013
20:30
V
14 °C 10 km+ - 280° 280° 18 kt METAR LPFR 022030Z 28018KT 9999 FEW015 SCT025 14/12 Q1013
20:00
V
15 °C 10 km+ - 280° 280° 15 kt METAR LPFR 022000Z 28015KT 9999 FEW008 SCT030 15/12 Q1013
19:30
V
14 °C 10 km+ - 270° 270° 17 kt METAR LPFR 021930Z 27017KT 9999 FEW008 SCT030 14/11 Q1012
19:00
V
14 °C 10 km+ 4,500 ft 260° 260° 18 kt METAR LPFR 021900Z 26018KT 9999 FEW008 BKN045 14/12 Q1012
18:30
V
15 °C 10 km+ - 260° 260° 18 kt METAR LPFR 021830Z 26018KT 9999 FEW008 SCT030 15/12 Q1012
18:00
V
14 °C 10 km+ - 270° 270° 16 kt METAR LPFR 021800Z 27016KT 9999 FEW008 14/12 Q1012
17:30
M
15 °C 6 km - 260° 260° 19 kt METAR LPFR 021730Z 26019KT 6000 -RA FEW008 SCT030 15/13 Q1012
17:00
V
15 °C 10 km+ - 270° 270° 21 kt METAR LPFR 021700Z 27021KT 9999 FEW008 SCT030 15/13 Q1012 WS ALL RWY
16:30
V
16 °C 10 km+ - 250° 250° 21 kt METAR LPFR 021630Z 25021KT 9999 FEW018 SCT030 16/12 Q1012
16:00
V
16 °C 10 km+ - 260° 260° 19 kt METAR LPFR 021600Z 26019KT 9999 FEW018 SCT030 16/12 Q1012
15:30
V
16 °C 10 km+ - 260° 260° 22 kt METAR LPFR 021530Z 26022KT 9999 FEW018 16/11 Q1013
15:00
V
14 °C 10 km+ - 270° 270° 24 - 35 kt METAR LPFR 021500Z 27024G35KT 9999 -RA FEW018 SCT042 14/12 Q1013
14:30
V
17 °C 10 km+ - 260° 260° 20 kt METAR LPFR 021430Z 26020KT 9999 FEW015 SCT030 17/12 Q1013
14:00
M
15 °C 10 km+ 3,000 ft 260° 260° 22 - 34 kt METAR LPFR 021400Z 26022G34KT 9999 -RA FEW015 BKN030 15/11 Q1014
13:30
V
17 °C 10 km+ - 250° 250° 21 kt METAR LPFR 021330Z 25021KT 9999 VCSH FEW015 SCT030 17/12 Q1014
13:00
V
17 °C 10 km+ - 250° 250° 19 kt METAR LPFR 021300Z 25019KT 9999 FEW015 17/12 Q1014
12:30
V
17 °C 10 km+ - 250° 250° 19 kt METAR LPFR 021230Z 25019KT 9999 FEW018 17/12 Q1015
12:00
V
16 °C 10 km+ - 250° 250° 13 kt METAR LPFR 021200Z 25013KT 9999 FEW018 16/12 Q1016
11:30
V
16 °C 10 km+ - 250° 250° 12 kt METAR LPFR 021130Z 25012KT 9999 FEW018 16/12 Q1016
11:00
V
16 °C 10 km+ - 260° 260° 12 kt METAR LPFR 021100Z 26012KT 9999 FEW015 16/11 Q1016
10:30
V
15 °C 10 km+ - 260° 260° 9 kt METAR LPFR 021030Z 26009KT 9999 FEW015 15/11 Q1017
10:00
V
14 °C 10 km+ - 270° 270° 8 kt METAR LPFR 021000Z 27008KT 9999 FEW018 14/11 Q1017
09:30
V
14 °C 10 km+ - 250° 250° 6 kt METAR LPFR 020930Z 25006KT 9999 FEW018 14/11 Q1017
09:00
V
13 °C 10 km+ - 300° 300° 4 kt METAR LPFR 020900Z 30004KT 9999 FEW018 13/10 Q1016
08:30
V
11 °C 10 km+ - 310° 310° 4 kt METAR LPFR 020830Z 31004KT 9999 FEW020 11/10 Q1017
08:00
V
11 °C 10 km+ - 300° 300° 4 kt METAR LPFR 020800Z 30004KT 270V330 9999 FEW020 11/10 Q1016
07:30
V
10 °C 10 km+ - 310° 310° 4 kt METAR LPFR 020730Z 31004KT 9999 FEW025 10/09 Q1016
07:00
V
9 °C 10 km+ - 310° 310° 4 kt METAR LPFR 020700Z 31004KT CAVOK 09/08 Q1016
06:30
V
10 °C 10 km+ - 310° 310° 3 kt METAR LPFR 020630Z 31003KT 280V340 9999 FEW018 10/08 Q1016
06:00
V
10 °C 10 km+ - 310° 310° 4 kt METAR LPFR 020600Z 31004KT 9999 FEW018 10/08 Q1016
05:30
V
10 °C 10 km+ - 310° 310° 6 kt METAR LPFR 020530Z 31006KT CAVOK 10/08 Q1016
05:00
V
10 °C 10 km+ - 310° 310° 6 kt METAR LPFR 020500Z 31006KT CAVOK 10/08 Q1016
04:30
V
10 °C 10 km+ - 300° 300° 6 kt METAR LPFR 020430Z 30006KT CAVOK 10/08 Q1017
04:00
V
10 °C 10 km+ - 300° 300° 5 kt METAR LPFR 020400Z 30005KT CAVOK 10/08 Q1017
03:30
V
10 °C 10 km+ - 310° 310° 6 kt METAR LPFR 020330Z 31006KT CAVOK 10/08 Q1017
03:00
V
9 °C 10 km+ - 310° 310° 6 kt METAR LPFR 020300Z 31006KT CAVOK 09/08 Q1018
02:30
V
10 °C 10 km+ - 310° 310° 6 kt METAR LPFR 020230Z 31006KT CAVOK 10/08 Q1018
02:00
V
10 °C 10 km+ - 300° 300° 6 kt METAR LPFR 020200Z 30006KT CAVOK 10/08 Q1018
01:30
V
9 °C 10 km+ - 290° 290° 7 kt METAR LPFR 020130Z 29007KT CAVOK 09/07 Q1018
01:00
V
11 °C 10 km+ - 310° 310° 8 kt METAR LPFR 020100Z 31008KT CAVOK 11/08 Q1019
00:30
V
10 °C 10 km+ - 300° 300° 8 kt METAR LPFR 020030Z 30008KT CAVOK 10/08 Q1019
00:00
V
10 °C 10 km+ - 290° 290° 7 kt METAR LPFR 020000Z 29007KT CAVOK 10/08 Q1019

March 1, 2024

Time Code Weather Temp. Visibility Ceiling Wind METAR/SPECI
23:30
V
10 °C 10 km+ - 300° 300° 5 kt METAR LPFR 012330Z 30005KT CAVOK 10/08 Q1020
23:00
V
10 °C 10 km+ - 300° 300° 5 kt METAR LPFR 012300Z 30005KT CAVOK 10/07 Q1020
22:30
V
10 °C 10 km+ - 300° 300° 5 kt METAR LPFR 012230Z 30005KT CAVOK 10/07 Q1020
22:00
V
11 °C 10 km+ - 310° 310° 6 kt METAR LPFR 012200Z 31006KT CAVOK 11/08 Q1020
21:30
V
11 °C 10 km+ - 310° 310° 8 kt METAR LPFR 012130Z 31008KT CAVOK 11/07 Q1020
21:00
V
12 °C 10 km+ - 310° 310° 8 kt METAR LPFR 012100Z 31008KT CAVOK 12/08 Q1020
20:30
V
13 °C 10 km+ - 310° 310° 9 kt METAR LPFR 012030Z 31009KT CAVOK 13/08 Q1020
20:00
V
13 °C 10 km+ - 310° 310° 9 kt METAR LPFR 012000Z 31009KT CAVOK 13/07 Q1020
19:30
V
14 °C 10 km+ - 310° 310° 10 kt METAR LPFR 011930Z 31010KT 9999 FEW020 14/07 Q1020
19:00
V
15 °C 10 km+ - 310° 310° 10 kt METAR LPFR 011900Z 31010KT 9999 FEW035 15/07 Q1020
18:30
V
15 °C 10 km+ - 300° 300° 12 kt METAR LPFR 011830Z 30012KT 9999 SCT035 15/07 Q1020
18:00
V
16 °C 10 km+ - 320° 320° 10 kt METAR LPFR 011800Z 32010KT 9999 SCT035 16/06 Q1020
17:30
V
17 °C 10 km+ - 310° 310° 8 kt METAR LPFR 011730Z 31008KT 9999 SCT035 17/07 Q1019
17:00
V
17 °C 10 km+ - 320° 320° 9 kt METAR LPFR 011700Z 32009KT 9999 SCT035 17/06 Q1019
16:30
V
17 °C 10 km+ - 310° 310° 7 kt METAR LPFR 011630Z 31007KT 280V350 9999 SCT035 17/05 Q1020
16:00
V
18 °C 10 km+ - 340° 340° 12 kt METAR LPFR 011600Z 34012KT 290V010 9999 SCT030 18/05 Q1020
15:30
V
18 °C 10 km+ - 330° 330° 11 kt METAR LPFR 011530Z 33011KT 290V010 9999 FEW030 18/05 Q1020
15:00
V
18 °C 10 km+ - 330° 330° 12 kt METAR LPFR 011500Z 33012KT 9999 FEW030 18/05 Q1020
14:30
V
18 °C 10 km+ - 340° 340° 10 kt METAR LPFR 011430Z 34010KT 300V010 9999 FEW030 18/05 Q1021
14:00
V
18 °C 10 km+ - 350° 350° 11 kt METAR LPFR 011400Z 35011KT 310V040 9999 FEW048 18/05 Q1021
13:30
V
17 °C 10 km+ - 360° 360° 11 kt METAR LPFR 011330Z 36011KT 9999 FEW045 17/04 Q1022
13:00
V
17 °C 10 km+ - 340° 340° 10 kt METAR LPFR 011300Z 34010KT 300V010 CAVOK 17/04 Q1022
12:30
V
17 °C 10 km+ - 350° 350° 12 kt METAR LPFR 011230Z 35012KT 310V020 9999 FEW045 17/04 Q1023
12:00
V
17 °C 10 km+ - 010° 010° 13 kt METAR LPFR 011200Z 01013KT 330V030 9999 FEW045 17/05 Q1023
11:30
V
16 °C 10 km+ - 360° 360° 12 kt METAR LPFR 011130Z 36012KT 320V030 9999 FEW040 16/05 Q1024
11:00
V
15 °C 10 km+ - 350° 350° 12 kt METAR LPFR 011100Z 35012KT 310V030 9999 FEW030 15/05 Q1024
10:30
V
15 °C 10 km+ - 340° 340° 11 kt METAR LPFR 011030Z 34011KT 310V020 9999 FEW025 15/05 Q1024
10:00
V
14 °C 10 km+ - 350° 350° 11 kt METAR LPFR 011000Z 35011KT 310V010 CAVOK 14/05 Q1025
09:30
V
13 °C 10 km+ - 350° 350° 7 kt METAR LPFR 010930Z 35007KT 320V030 CAVOK 13/05 Q1025
09:00
V
12 °C 10 km+ - 350° 350° 11 kt METAR LPFR 010900Z 35011KT CAVOK 12/05 Q1025
08:30
V
11 °C 10 km+ - 280° 280° 3 kt METAR LPFR 010830Z 28003KT 230V360 CAVOK 11/05 Q1025
08:00
V
11 °C 10 km+ - Var Var 4 kt METAR LPFR 010800Z VRB04KT CAVOK 11/05 Q1025
07:30
V
10 °C 10 km+ - 320° 320° 7 kt METAR LPFR 010730Z 32007KT 280V350 CAVOK 10/05 Q1025
07:00
V
10 °C 10 km+ - 340° 340° 12 kt METAR LPFR 010700Z 34012KT CAVOK 10/04 Q1024
06:30
V
10 °C 10 km+ - 330° 330° 15 kt METAR LPFR 010630Z 33015KT CAVOK 10/04 Q1024
06:00
V
10 °C 10 km+ - 320° 320° 11 kt METAR LPFR 010600Z 32011KT CAVOK 10/04 Q1024
05:30
V
10 °C 10 km+ - 340° 340° 11 kt METAR LPFR 010530Z 34011KT CAVOK 10/04 Q1024
05:00
V
11 °C 10 km+ - 340° 340° 11 kt METAR LPFR 010500Z 34011KT CAVOK 11/03 Q1024
04:30
V
10 °C 10 km+ - 330° 330° 7 kt METAR LPFR 010430Z 33007KT 290V020 CAVOK 10/04 Q1024
04:00
V
11 °C 10 km+ - 320° 320° 5 kt METAR LPFR 010400Z 32005KT 270V010 CAVOK 11/03 Q1024
03:30
V
10 °C 10 km+ - 350° 350° 7 kt METAR LPFR 010330Z 35007KT 260V040 CAVOK 10/03 Q1024
03:00
V
11 °C 10 km+ - 350° 350° 8 kt METAR LPFR 010300Z 35008KT 320V020 CAVOK 11/03 Q1024
02:30
V
11 °C 10 km+ - 340° 340° 9 kt METAR LPFR 010230Z 34009KT 320V030 CAVOK 11/03 Q1024
02:00
V
11 °C 10 km+ - 340° 340° 8 kt METAR LPFR 010200Z 34008KT 300V020 CAVOK 11/03 Q1025
01:30
V
11 °C 10 km+ - 350° 350° 8 kt METAR LPFR 010130Z 35008KT 290V020 CAVOK 11/04 Q1025
01:00
V
11 °C 10 km+ - Var Var 5 kt METAR LPFR 010100Z VRB05KT CAVOK 11/04 Q1024
00:30
V
11 °C 10 km+ - Var Var 4 kt METAR LPFR 010030Z VRB04KT CAVOK 11/05 Q1024
00:00
V
11 °C 10 km+ - 350° 350° 4 kt METAR LPFR 010000Z 35004KT 280V040 CAVOK 11/04 Q1025

February 29, 2024

Time Code Weather Temp. Visibility Ceiling Wind METAR/SPECI
23:30
V
11 °C 10 km+ - Var Var 4 - 14 kt METAR LPFR 292330Z VRB04G14KT CAVOK 11/04 Q1025
23:00
V
12 °C 10 km+ - 330° 330° 11 kt METAR LPFR 292300Z 33011KT 310V010 CAVOK 12/04 Q1025
22:30
V
12 °C 10 km+ - 330° 330° 11 kt METAR LPFR 292230Z 33011KT 310V030 CAVOK 12/05 Q1024
22:00
V
13 °C 10 km+ - 340° 340° 11 kt METAR LPFR 292200Z 34011KT CAVOK 13/05 Q1024
21:30
V
12 °C 10 km+ - 330° 330° 9 kt METAR LPFR 292130Z 33009KT CAVOK 12/05 Q1024
21:00
V
13 °C 10 km+ - 320° 320° 12 kt METAR LPFR 292100Z 32012KT CAVOK 13/05 Q1024
20:30
V
14 °C 10 km+ - 330° 330° 11 kt METAR LPFR 292030Z 33011KT CAVOK 14/05 Q1024
20:00
V
14 °C 10 km+ - 310° 310° 7 kt METAR LPFR 292000Z 31007KT 9999 FEW045 14/06 Q1023
19:30
V
15 °C 10 km+ - 300° 300° 7 kt METAR LPFR 291930Z 30007KT 9999 FEW045 15/06 Q1023
19:00
V
16 °C 10 km+ - 320° 320° 10 kt METAR LPFR 291900Z 32010KT 9999 FEW045 16/07 Q1023
18:30
V
17 °C 10 km+ - 330° 330° 13 kt METAR LPFR 291830Z 33013KT 9999 FEW045 17/08 Q1022
18:00
V
18 °C 10 km+ - 330° 330° 12 kt METAR LPFR 291800Z 33012KT 9999 FEW045 18/09 Q1022
17:30
V
18 °C 10 km+ - 340° 340° 15 kt METAR LPFR 291730Z 34015KT 9999 FEW045 18/09 Q1022
17:00
V
19 °C 10 km+ - 320° 320° 13 kt METAR LPFR 291700Z 32013KT 290V360 9999 SCT045 19/09 Q1021
16:30
V
19 °C 10 km+ 4,500 ft 330° 330° 15 kt METAR LPFR 291630Z 33015KT 300V360 9999 BKN045 19/09 Q1022
16:00
V
19 °C 10 km+ - 340° 340° 14 kt METAR LPFR 291600Z 34014KT 310V010 9999 SCT045 19/08 Q1021
15:30
V
19 °C 10 km+ - 340° 340° 14 kt METAR LPFR 291530Z 34014KT 310V010 9999 SCT045 19/08 Q1022
15:00
V
19 °C 10 km+ 4,000 ft 320° 320° 16 kt METAR LPFR 291500Z 32016KT 9999 BKN040 19/09 Q1022
14:30
V
19 °C 10 km+ 4,000 ft 340° 340° 15 kt METAR LPFR 291430Z 34015KT 9999 BKN040 19/09 Q1022
14:00
V
19 °C 10 km+ 4,000 ft 350° 350° 14 kt METAR LPFR 291400Z 35014KT 9999 BKN040 19/09 Q1023
13:30
V
19 °C 10 km+ - 330° 330° 11 kt METAR LPFR 291330Z 33011KT 270V360 9999 FEW026 19/09 Q1023
13:00
V
18 °C 10 km+ - 320° 320° 11 kt METAR LPFR 291300Z 32011KT 300V360 9999 FEW026 18/10 Q1023
12:30
V
17 °C 10 km+ - 320° 320° 13 kt METAR LPFR 291230Z 32013KT 300V360 9999 FEW022 SCT030 17/09 Q1023
12:00
M
16 °C 10 km+ 2,800 ft 340° 340° 15 kt METAR LPFR 291200Z 34015KT 9999 FEW022 BKN028 16/10 Q1024
11:30
M
17 °C 10 km+ 2,600 ft 340° 340° 15 kt METAR LPFR 291130Z 34015KT 9999 FEW020 BKN026 17/10 Q1024
11:00
M
15 °C 10 km+ 2,500 ft 340° 340° 16 kt METAR LPFR 291100Z 34016KT 9999 FEW020 BKN025 15/10 Q1024
10:30
M
15 °C 10 km+ 2,600 ft 350° 350° 17 kt METAR LPFR 291030Z 35017KT 9999 FEW020 BKN026 15/10 Q1024
10:00
M
15 °C 10 km+ 2,600 ft 330° 330° 21 kt METAR LPFR 291000Z 33021KT 9999 FEW020 BKN026 15/09 Q1024
09:30
V
14 °C 10 km+ - 340° 340° 11 kt METAR LPFR 290930Z 34011KT 300V360 9999 FEW020 SCT026 14/09 Q1024
09:00
V
14 °C 10 km+ - 330° 330° 11 kt METAR LPFR 290900Z 33011KT 9999 FEW020 14/10 Q1024
08:30
V
13 °C 10 km+ - 360° 360° 10 kt METAR LPFR 290830Z 36010KT 9999 FEW020 13/09 Q1023
08:00
V
12 °C 10 km+ - 360° 360° 11 kt METAR LPFR 290800Z 36011KT 9999 FEW018 12/09 Q1023
07:30
V
11 °C 10 km+ - 360° 360° 8 kt METAR LPFR 290730Z 36008KT CAVOK 11/08 Q1022
07:00
V
11 °C 10 km+ - 350° 350° 10 kt METAR LPFR 290700Z 35010KT CAVOK 11/08 Q1022
06:30
V
11 °C 10 km+ - 350° 350° 13 kt METAR LPFR 290630Z 35013KT CAVOK 11/08 Q1022
06:00
V
11 °C 10 km+ - 350° 350° 12 kt METAR LPFR 290600Z 35012KT CAVOK 11/08 Q1022